sensor_id;sensor_type;location;lat;lon;timestamp;P1;durP1;ratioP1;P2;durP2;ratioP2
49678;SDS011;35570;48.218;16.326;2023-02-24T07:07:11;28.10;;;23.08;;
49678;SDS011;35570;48.218;16.326;2023-02-24T07:09:38;28.60;;;22.40;;
49678;SDS011;35570;48.218;16.326;2023-02-24T07:12:05;29.10;;;22.33;;
49678;SDS011;35570;48.218;16.326;2023-02-24T07:14:32;26.98;;;23.02;;
49678;SDS011;35570;48.218;16.326;2023-02-24T07:17:00;28.70;;;22.48;;
49678;SDS011;35570;48.218;16.326;2023-02-24T07:22:15;33.20;;;23.58;;
49678;SDS011;35570;48.218;16.326;2023-02-24T07:24:41;28.13;;;22.70;;
49678;SDS011;35570;48.218;16.326;2023-02-24T07:27:15;29.55;;;23.20;;
49678;SDS011;35570;48.218;16.326;2023-02-24T07:29:46;26.92;;;22.42;;
49678;SDS011;35570;48.218;16.326;2023-02-24T07:32:15;30.13;;;23.08;;
49678;SDS011;35570;48.218;16.326;2023-02-24T07:34:42;29.77;;;22.88;;
49678;SDS011;35570;48.218;16.326;2023-02-24T07:37:08;31.52;;;23.90;;
49678;SDS011;35570;48.218;16.326;2023-02-24T07:39:38;30.08;;;22.73;;
49678;SDS011;35570;48.218;16.326;2023-02-24T07:48:53;30.85;;;22.48;;
49678;SDS011;35570;48.218;16.326;2023-02-24T09:01:45;18.58;;;15.30;;
49678;SDS011;35570;48.218;16.326;2023-02-24T09:04:18;21.50;;;16.67;;
49678;SDS011;35570;48.218;16.326;2023-02-24T09:09:13;20.13;;;15.27;;
49678;SDS011;35570;48.218;16.326;2023-02-24T09:11:54;20.00;;;16.25;;
49678;SDS011;35570;48.218;16.326;2023-02-24T09:14:23;19.67;;;14.50;;
49678;SDS011;35570;48.218;16.326;2023-02-24T09:17:00;19.08;;;15.65;;
49678;SDS011;35570;48.218;16.326;2023-02-24T09:22:10;19.63;;;14.40;;
49678;SDS011;35570;48.218;16.326;2023-02-24T09:24:55;18.52;;;14.13;;
49678;SDS011;35570;48.218;16.326;2023-02-24T09:30:50;18.33;;;14.07;;
49678;SDS011;35570;48.218;16.326;2023-02-24T09:33:20;17.05;;;13.52;;
49678;SDS011;35570;48.218;16.326;2023-02-24T09:38:33;16.75;;;12.15;;
49678;SDS011;35570;48.218;16.326;2023-02-24T09:41:37;14.00;;;11.15;;
49678;SDS011;35570;48.218;16.326;2023-02-24T09:47:44;11.82;;;10.45;;
49678;SDS011;35570;48.218;16.326;2023-02-24T09:50:16;15.52;;;11.10;;
49678;SDS011;35570;48.218;16.326;2023-02-24T09:52:47;14.70;;;10.82;;
49678;SDS011;35570;48.218;16.326;2023-02-24T09:57:53;15.02;;;10.90;;
49678;SDS011;35570;48.218;16.326;2023-02-24T10:00:48;21.85;;;12.13;;
49678;SDS011;35570;48.218;16.326;2023-02-24T10:03:22;17.25;;;10.85;;
49678;SDS011;35570;48.218;16.326;2023-02-24T10:06:14;14.55;;;10.77;;
49678;SDS011;35570;48.218;16.326;2023-02-24T10:14:13;13.48;;;9.23;;
49678;SDS011;35570;48.218;16.326;2023-02-24T10:16:43;15.73;;;9.80;;
49678;SDS011;35570;48.218;16.326;2023-02-24T10:19:31;12.57;;;9.00;;
49678;SDS011;35570;48.218;16.326;2023-02-24T10:22:05;13.25;;;8.85;;
49678;SDS011;35570;48.218;16.326;2023-02-24T10:31:24;13.18;;;7.70;;
49678;SDS011;35570;48.218;16.326;2023-02-24T10:34:00;12.82;;;7.28;;
49678;SDS011;35570;48.218;16.326;2023-02-24T10:36:30;10.05;;;7.15;;
49678;SDS011;35570;48.218;16.326;2023-02-24T10:39:16;10.30;;;6.53;;
49678;SDS011;35570;48.218;16.326;2023-02-24T10:41:49;10.30;;;7.00;;
49678;SDS011;35570;48.218;16.326;2023-02-24T10:44:39;10.25;;;6.63;;
49678;SDS011;35570;48.218;16.326;2023-02-24T10:47:17;10.23;;;6.82;;
49678;SDS011;35570;48.218;16.326;2023-02-24T10:49:58;9.25;;;6.50;;
49678;SDS011;35570;48.218;16.326;2023-02-24T10:55:18;9.43;;;6.32;;
49678;SDS011;35570;48.218;16.326;2023-02-24T10:58:03;11.23;;;7.05;;
49678;SDS011;35570;48.218;16.326;2023-02-24T11:00:37;7.90;;;6.15;;
49678;SDS011;35570;48.218;16.326;2023-02-24T11:03:23;8.90;;;6.32;;
49678;SDS011;35570;48.218;16.326;2023-02-24T11:06:22;9.30;;;6.70;;
49678;SDS011;35570;48.218;16.326;2023-02-24T11:09:05;14.40;;;10.77;;
49678;SDS011;35570;48.218;16.326;2023-02-24T11:11:45;17.48;;;12.00;;
49678;SDS011;35570;48.218;16.326;2023-02-24T11:14:30;21.80;;;15.15;;
49678;SDS011;35570;48.218;16.326;2023-02-24T11:17:29;17.27;;;13.65;;
49678;SDS011;35570;48.218;16.326;2023-02-24T11:19:59;21.08;;;13.77;;
49678;SDS011;35570;48.218;16.326;2023-02-24T11:22:43;15.80;;;11.20;;
49678;SDS011;35570;48.218;16.326;2023-02-24T11:25:21;12.82;;;10.27;;
49678;SDS011;35570;48.218;16.326;2023-02-24T11:27:54;14.07;;;10.18;;
49678;SDS011;35570;48.218;16.326;2023-02-24T11:30:25;11.38;;;8.93;;
49678;SDS011;35570;48.218;16.326;2023-02-24T11:33:37;11.32;;;8.77;;
49678;SDS011;35570;48.218;16.326;2023-02-24T11:36:28;10.50;;;8.68;;
49678;SDS011;35570;48.218;16.326;2023-02-24T11:42:33;14.98;;;9.23;;
49678;SDS011;35570;48.218;16.326;2023-02-24T11:47:52;13.98;;;9.02;;
49678;SDS011;35570;48.218;16.326;2023-02-24T11:52:49;17.23;;;8.93;;
49678;SDS011;35570;48.218;16.326;2023-02-24T11:55:23;13.00;;;8.23;;
49678;SDS011;35570;48.218;16.326;2023-02-24T11:57:58;12.80;;;8.05;;
49678;SDS011;35570;48.218;16.326;2023-02-24T12:01:09;11.48;;;8.13;;
49678;SDS011;35570;48.218;16.326;2023-02-24T12:06:47;10.60;;;7.88;;
49678;SDS011;35570;48.218;16.326;2023-02-24T12:09:35;14.52;;;8.57;;
49678;SDS011;35570;48.218;16.326;2023-02-24T12:12:13;12.02;;;7.15;;
49678;SDS011;35570;48.218;16.326;2023-02-24T12:14:51;10.68;;;7.80;;
49678;SDS011;35570;48.218;16.326;2023-02-24T12:17:24;12.55;;;8.18;;
49678;SDS011;35570;48.218;16.326;2023-02-24T12:25:41;13.20;;;6.85;;
49678;SDS011;35570;48.218;16.326;2023-02-24T12:48:24;6.55;;;3.08;;
49678;SDS011;35570;48.218;16.326;2023-02-24T12:51:07;7.57;;;3.45;;
49678;SDS011;35570;48.218;16.326;2023-02-24T12:53:43;10.55;;;3.58;;
49678;SDS011;35570;48.218;16.326;2023-02-24T12:58:45;8.32;;;3.83;;
49678;SDS011;35570;48.218;16.326;2023-02-24T13:09:21;8.05;;;3.17;;
49678;SDS011;35570;48.218;16.326;2023-02-24T13:11:51;5.63;;;3.05;;
49678;SDS011;35570;48.218;16.326;2023-02-24T13:14:36;9.85;;;3.15;;
49678;SDS011;35570;48.218;16.326;2023-02-24T13:17:22;7.88;;;2.70;;
49678;SDS011;35570;48.218;16.326;2023-02-24T13:19:51;6.05;;;2.83;;
49678;SDS011;35570;48.218;16.326;2023-02-24T13:22:19;10.27;;;2.78;;
49678;SDS011;35570;48.218;16.326;2023-02-24T13:24:56;6.68;;;2.85;;
49678;SDS011;35570;48.218;16.326;2023-02-24T13:29:56;7.38;;;2.42;;
49678;SDS011;35570;48.218;16.326;2023-02-24T13:37:40;8.25;;;2.70;;
49678;SDS011;35570;48.218;16.326;2023-02-24T13:40:12;5.72;;;2.53;;
49678;SDS011;35570;48.218;16.326;2023-02-24T13:42:40;6.78;;;2.80;;
49678;SDS011;35570;48.218;16.326;2023-02-24T13:50:25;5.93;;;2.93;;
49678;SDS011;35570;48.218;16.326;2023-02-24T14:02:35;5.57;;;2.92;;
49678;SDS011;35570;48.218;16.326;2023-02-24T14:07:40;6.72;;;3.65;;
49678;SDS011;35570;48.218;16.326;2023-02-24T14:12:44;9.38;;;3.05;;
49678;SDS011;35570;48.218;16.326;2023-02-24T14:15:16;9.23;;;3.83;;
49678;SDS011;35570;48.218;16.326;2023-02-24T14:17:53;5.35;;;3.03;;
49678;SDS011;35570;48.218;16.326;2023-02-24T14:20:21;5.35;;;3.40;;
49678;SDS011;35570;48.218;16.326;2023-02-24T14:22:52;5.82;;;3.25;;
49678;SDS011;35570;48.218;16.326;2023-02-24T14:25:20;6.18;;;3.95;;
49678;SDS011;35570;48.218;16.326;2023-02-24T14:27:48;10.20;;;4.88;;
49678;SDS011;35570;48.218;16.326;2023-02-24T14:32:47;9.25;;;4.18;;
49678;SDS011;35570;48.218;16.326;2023-02-24T14:38:43;7.50;;;4.38;;
49678;SDS011;35570;48.218;16.326;2023-02-24T14:41:03;6.00;;;4.00;;
49678;SDS011;35570;48.218;16.326;2023-02-24T14:43:31;10.48;;;4.30;;
49678;SDS011;35570;48.218;16.326;2023-02-24T14:46:04;6.38;;;3.90;;
49678;SDS011;35570;48.218;16.326;2023-02-24T14:48:30;8.35;;;4.13;;
49678;SDS011;35570;48.218;16.326;2023-02-24T14:50:57;11.95;;;4.70;;
49678;SDS011;35570;48.218;16.326;2023-02-24T14:53:41;8.27;;;4.03;;
49678;SDS011;35570;48.218;16.326;2023-02-24T14:56:14;11.65;;;4.00;;
49678;SDS011;35570;48.218;16.326;2023-02-24T14:58:42;7.65;;;4.25;;
49678;SDS011;35570;48.218;16.326;2023-02-24T15:03:44;9.98;;;4.45;;
49678;SDS011;35570;48.218;16.326;2023-02-24T15:06:16;9.45;;;4.45;;
49678;SDS011;35570;48.218;16.326;2023-02-24T15:08:59;8.50;;;5.13;;
49678;SDS011;35570;48.218;16.326;2023-02-24T15:11:30;8.00;;;4.95;;
49678;SDS011;35570;48.218;16.326;2023-02-24T15:13:57;8.68;;;5.18;;
49678;SDS011;35570;48.218;16.326;2023-02-24T15:16:37;10.15;;;4.93;;
49678;SDS011;35570;48.218;16.326;2023-02-24T15:19:23;7.22;;;4.45;;
49678;SDS011;35570;48.218;16.326;2023-02-24T15:21:55;8.77;;;4.10;;
49678;SDS011;35570;48.218;16.326;2023-02-24T15:24:25;12.85;;;5.05;;
49678;SDS011;35570;48.218;16.326;2023-02-24T15:29:44;11.50;;;5.40;;
49678;SDS011;35570;48.218;16.326;2023-02-24T15:32:26;10.07;;;5.65;;
49678;SDS011;35570;48.218;16.326;2023-02-24T15:34:54;8.88;;;5.50;;
49678;SDS011;35570;48.218;16.326;2023-02-24T15:37:24;9.00;;;5.25;;
49678;SDS011;35570;48.218;16.326;2023-02-24T15:39:55;10.50;;;5.57;;
49678;SDS011;35570;48.218;16.326;2023-02-24T15:42:33;8.73;;;5.65;;
49678;SDS011;35570;48.218;16.326;2023-02-24T15:45:33;10.13;;;5.25;;
49678;SDS011;35570;48.218;16.326;2023-02-24T15:47:54;8.25;;;5.95;;
49678;SDS011;35570;48.218;16.326;2023-02-24T15:50:22;8.82;;;5.47;;
49678;SDS011;35570;48.218;16.326;2023-02-24T15:52:48;12.20;;;6.28;;
49678;SDS011;35570;48.218;16.326;2023-02-24T15:55:14;10.70;;;5.95;;
49678;SDS011;35570;48.218;16.326;2023-02-24T15:57:44;10.68;;;5.28;;
49678;SDS011;35570;48.218;16.326;2023-02-24T16:00:12;9.20;;;5.07;;
49678;SDS011;35570;48.218;16.326;2023-02-24T16:02:41;10.07;;;5.57;;
49678;SDS011;35570;48.218;16.326;2023-02-24T16:05:13;10.13;;;5.60;;
49678;SDS011;35570;48.218;16.326;2023-02-24T16:07:40;7.47;;;5.20;;
49678;SDS011;35570;48.218;16.326;2023-02-24T16:10:13;12.55;;;5.57;;
49678;SDS011;35570;48.218;16.326;2023-02-24T16:12:49;8.85;;;4.90;;
49678;SDS011;35570;48.218;16.326;2023-02-24T16:15:22;11.00;;;4.80;;
49678;SDS011;35570;48.218;16.326;2023-02-24T16:17:51;9.32;;;4.95;;
49678;SDS011;35570;48.218;16.326;2023-02-24T16:20:23;9.13;;;4.72;;
49678;SDS011;35570;48.218;16.326;2023-02-24T16:23:02;10.30;;;4.93;;
49678;SDS011;35570;48.218;16.326;2023-02-24T16:25:37;7.90;;;4.53;;
49678;SDS011;35570;48.218;16.326;2023-02-24T16:28:20;8.70;;;4.72;;
49678;SDS011;35570;48.218;16.326;2023-02-24T16:30:47;9.55;;;5.13;;
49678;SDS011;35570;48.218;16.326;2023-02-24T16:33:15;7.97;;;4.68;;
49678;SDS011;35570;48.218;16.326;2023-02-24T16:35:42;9.63;;;4.68;;
49678;SDS011;35570;48.218;16.326;2023-02-24T16:38:12;8.88;;;4.25;;
49678;SDS011;35570;48.218;16.326;2023-02-24T16:40:41;10.15;;;4.72;;
49678;SDS011;35570;48.218;16.326;2023-02-24T16:43:09;10.55;;;4.57;;
49678;SDS011;35570;48.218;16.326;2023-02-24T16:45:37;9.45;;;4.90;;
49678;SDS011;35570;48.218;16.326;2023-02-24T16:48:04;13.45;;;4.88;;
49678;SDS011;35570;48.218;16.326;2023-02-24T16:50:39;10.55;;;4.57;;
49678;SDS011;35570;48.218;16.326;2023-02-24T16:53:07;8.52;;;4.82;;
49678;SDS011;35570;48.218;16.326;2023-02-24T16:55:36;8.70;;;4.90;;
49678;SDS011;35570;48.218;16.326;2023-02-24T16:58:02;12.85;;;5.80;;
49678;SDS011;35570;48.218;16.326;2023-02-24T17:00:28;8.80;;;5.93;;
49678;SDS011;35570;48.218;16.326;2023-02-24T17:02:56;11.57;;;6.43;;
49678;SDS011;35570;48.218;16.326;2023-02-24T17:05:35;8.88;;;5.30;;
49678;SDS011;35570;48.218;16.326;2023-02-24T17:08:01;11.57;;;5.60;;
49678;SDS011;35570;48.218;16.326;2023-02-24T17:10:27;9.70;;;5.57;;
49678;SDS011;35570;48.218;16.326;2023-02-24T17:12:53;11.60;;;7.20;;
49678;SDS011;35570;48.218;16.326;2023-02-24T17:15:22;12.45;;;8.35;;
49678;SDS011;35570;48.218;16.326;2023-02-24T17:17:48;14.77;;;7.13;;
49678;SDS011;35570;48.218;16.326;2023-02-24T17:23:22;10.93;;;6.38;;
49678;SDS011;35570;48.218;16.326;2023-02-24T17:25:50;8.85;;;6.47;;
49678;SDS011;35570;48.218;16.326;2023-02-24T17:28:18;10.43;;;6.78;;
49678;SDS011;35570;48.218;16.326;2023-02-24T17:30:44;10.55;;;5.90;;
49678;SDS011;35570;48.218;16.326;2023-02-24T17:33:16;11.02;;;7.93;;
49678;SDS011;35570;48.218;16.326;2023-02-24T17:35:42;13.95;;;8.95;;
49678;SDS011;35570;48.218;16.326;2023-02-24T17:38:12;14.15;;;7.93;;
49678;SDS011;35570;48.218;16.326;2023-02-24T17:40:39;11.07;;;6.40;;
49678;SDS011;35570;48.218;16.326;2023-02-24T17:43:06;11.50;;;6.55;;
49678;SDS011;35570;48.218;16.326;2023-02-24T17:45:32;10.80;;;6.50;;
49678;SDS011;35570;48.218;16.326;2023-02-24T17:47:58;15.73;;;7.72;;
49678;SDS011;35570;48.218;16.326;2023-02-24T17:50:24;11.27;;;8.02;;
49678;SDS011;35570;48.218;16.326;2023-02-24T17:52:50;15.48;;;8.55;;
49678;SDS011;35570;48.218;16.326;2023-02-24T17:55:16;12.05;;;7.22;;
49678;SDS011;35570;48.218;16.326;2023-02-24T17:57:42;11.20;;;7.00;;
49678;SDS011;35570;48.218;16.326;2023-02-24T18:00:10;14.15;;;6.75;;
49678;SDS011;35570;48.218;16.326;2023-02-24T18:02:39;17.77;;;7.82;;
49678;SDS011;35570;48.218;16.326;2023-02-24T18:05:07;12.98;;;6.75;;
49678;SDS011;35570;48.218;16.326;2023-02-24T18:07:34;14.75;;;6.82;;
49678;SDS011;35570;48.218;16.326;2023-02-24T18:10:00;14.32;;;7.50;;
49678;SDS011;35570;48.218;16.326;2023-02-24T18:12:26;16.50;;;7.07;;
49678;SDS011;35570;48.218;16.326;2023-02-24T18:14:52;13.38;;;7.93;;
49678;SDS011;35570;48.218;16.326;2023-02-24T18:17:19;13.18;;;7.57;;
49678;SDS011;35570;48.218;16.326;2023-02-24T18:19:45;17.20;;;9.15;;
49678;SDS011;35570;48.218;16.326;2023-02-24T18:22:11;16.17;;;8.90;;
49678;SDS011;35570;48.218;16.326;2023-02-24T18:24:36;15.10;;;8.57;;
49678;SDS011;35570;48.218;16.326;2023-02-24T18:27:03;14.77;;;8.05;;
49678;SDS011;35570;48.218;16.326;2023-02-24T18:29:30;13.35;;;8.80;;
49678;SDS011;35570;48.218;16.326;2023-02-24T18:31:57;16.15;;;8.85;;
49678;SDS011;35570;48.218;16.326;2023-02-24T18:34:26;12.27;;;8.00;;
49678;SDS011;35570;48.218;16.326;2023-02-24T18:36:52;16.67;;;9.10;;
49678;SDS011;35570;48.218;16.326;2023-02-24T18:39:19;19.33;;;9.85;;
49678;SDS011;35570;48.218;16.326;2023-02-24T18:41:45;13.73;;;9.20;;
49678;SDS011;35570;48.218;16.326;2023-02-24T18:44:11;16.02;;;8.15;;
49678;SDS011;35570;48.218;16.326;2023-02-24T18:46:37;14.23;;;7.82;;
49678;SDS011;35570;48.218;16.326;2023-02-24T18:49:03;19.65;;;7.40;;
49678;SDS011;35570;48.218;16.326;2023-02-24T18:51:33;16.50;;;8.40;;
49678;SDS011;35570;48.218;16.326;2023-02-24T18:54:01;16.27;;;8.32;;
49678;SDS011;35570;48.218;16.326;2023-02-24T18:56:28;15.35;;;8.55;;
49678;SDS011;35570;48.218;16.326;2023-02-24T18:58:56;18.08;;;9.10;;
49678;SDS011;35570;48.218;16.326;2023-02-24T19:01:26;18.63;;;8.55;;
49678;SDS011;35570;48.218;16.326;2023-02-24T19:03:54;19.75;;;9.25;;
49678;SDS011;35570;48.218;16.326;2023-02-24T19:06:21;14.77;;;9.18;;
49678;SDS011;35570;48.218;16.326;2023-02-24T19:08:54;15.10;;;8.30;;
49678;SDS011;35570;48.218;16.326;2023-02-24T19:11:27;19.67;;;9.38;;
49678;SDS011;35570;48.218;16.326;2023-02-24T19:13:54;16.48;;;9.13;;
49678;SDS011;35570;48.218;16.326;2023-02-24T19:16:21;15.63;;;8.38;;
49678;SDS011;35570;48.218;16.326;2023-02-24T19:18:50;18.75;;;9.07;;
49678;SDS011;35570;48.218;16.326;2023-02-24T19:21:17;17.67;;;8.55;;
49678;SDS011;35570;48.218;16.326;2023-02-24T19:23:45;19.42;;;9.98;;
49678;SDS011;35570;48.218;16.326;2023-02-24T19:26:29;20.55;;;9.23;;
49678;SDS011;35570;48.218;16.326;2023-02-24T19:28:56;13.23;;;8.98;;
49678;SDS011;35570;48.218;16.326;2023-02-24T19:31:23;15.65;;;8.40;;
49678;SDS011;35570;48.218;16.326;2023-02-24T19:33:52;13.52;;;7.88;;
49678;SDS011;35570;48.218;16.326;2023-02-24T19:36:19;14.38;;;7.97;;
49678;SDS011;35570;48.218;16.326;2023-02-24T19:38:52;13.20;;;8.30;;
49678;SDS011;35570;48.218;16.326;2023-02-24T19:41:18;17.50;;;8.32;;
49678;SDS011;35570;48.218;16.326;2023-02-24T19:43:45;17.45;;;9.63;;
49678;SDS011;35570;48.218;16.326;2023-02-24T19:46:12;16.15;;;8.88;;
49678;SDS011;35570;48.218;16.326;2023-02-24T19:48:49;16.42;;;9.73;;
49678;SDS011;35570;48.218;16.326;2023-02-24T19:51:16;18.77;;;9.43;;
49678;SDS011;35570;48.218;16.326;2023-02-24T19:53:45;17.83;;;9.95;;
49678;SDS011;35570;48.218;16.326;2023-02-24T19:56:11;14.40;;;9.77;;
49678;SDS011;35570;48.218;16.326;2023-02-24T19:58:37;15.95;;;9.52;;
49678;SDS011;35570;48.218;16.326;2023-02-24T20:01:04;15.82;;;9.95;;
49678;SDS011;35570;48.218;16.326;2023-02-24T20:03:38;14.45;;;9.98;;
49678;SDS011;35570;48.218;16.326;2023-02-24T20:06:05;17.65;;;9.85;;
49678;SDS011;35570;48.218;16.326;2023-02-24T20:08:41;17.00;;;9.77;;
49678;SDS011;35570;48.218;16.326;2023-02-24T20:11:08;15.48;;;10.75;;
49678;SDS011;35570;48.218;16.326;2023-02-24T20:13:35;16.17;;;10.05;;
49678;SDS011;35570;48.218;16.326;2023-02-24T20:18:31;15.85;;;8.40;;
49678;SDS011;35570;48.218;16.326;2023-02-24T20:20:57;14.90;;;8.00;;
49678;SDS011;35570;48.218;16.326;2023-02-24T20:23:26;10.57;;;6.50;;
49678;SDS011;35570;48.218;16.326;2023-02-24T20:25:52;13.80;;;6.97;;
49678;SDS011;35570;48.218;16.326;2023-02-24T20:28:19;13.07;;;6.45;;
49678;SDS011;35570;48.218;16.326;2023-02-24T20:30:49;12.65;;;5.38;;
49678;SDS011;35570;48.218;16.326;2023-02-24T20:33:16;8.35;;;4.85;;
49678;SDS011;35570;48.218;16.326;2023-02-24T20:35:42;9.20;;;5.15;;
49678;SDS011;35570;48.218;16.326;2023-02-24T20:38:10;7.57;;;4.22;;
49678;SDS011;35570;48.218;16.326;2023-02-24T20:40:36;8.82;;;4.88;;
49678;SDS011;35570;48.218;16.326;2023-02-24T20:43:03;8.18;;;4.75;;
49678;SDS011;35570;48.218;16.326;2023-02-24T20:45:31;10.10;;;4.68;;
49678;SDS011;35570;48.218;16.326;2023-02-24T20:47:58;8.90;;;4.13;;
49678;SDS011;35570;48.218;16.326;2023-02-24T20:50:25;10.80;;;4.38;;
49678;SDS011;35570;48.218;16.326;2023-02-24T20:52:51;9.00;;;4.50;;
49678;SDS011;35570;48.218;16.326;2023-02-24T20:55:17;8.40;;;4.40;;
49678;SDS011;35570;48.218;16.326;2023-02-24T20:57:43;8.25;;;4.03;;
49678;SDS011;35570;48.218;16.326;2023-02-24T21:00:09;9.55;;;3.90;;
49678;SDS011;35570;48.218;16.326;2023-02-24T21:02:36;8.35;;;3.83;;
49678;SDS011;35570;48.218;16.326;2023-02-24T21:05:09;7.25;;;3.80;;
49678;SDS011;35570;48.218;16.326;2023-02-24T21:07:46;9.95;;;3.60;;
49678;SDS011;35570;48.218;16.326;2023-02-24T21:10:14;6.50;;;3.25;;
49678;SDS011;35570;48.218;16.326;2023-02-24T21:12:40;8.52;;;3.17;;
49678;SDS011;35570;48.218;16.326;2023-02-24T21:15:06;9.43;;;3.30;;
49678;SDS011;35570;48.218;16.326;2023-02-24T21:17:36;10.48;;;3.45;;
49678;SDS011;35570;48.218;16.326;2023-02-24T21:20:02;11.68;;;3.67;;
49678;SDS011;35570;48.218;16.326;2023-02-24T21:22:29;17.42;;;4.30;;
49678;SDS011;35570;48.218;16.326;2023-02-24T21:24:57;8.95;;;3.80;;
49678;SDS011;35570;48.218;16.326;2023-02-24T21:27:24;10.77;;;3.63;;
49678;SDS011;35570;48.218;16.326;2023-02-24T21:29:50;11.52;;;3.83;;
49678;SDS011;35570;48.218;16.326;2023-02-24T21:32:17;11.40;;;3.58;;
49678;SDS011;35570;48.218;16.326;2023-02-24T21:34:43;11.10;;;3.40;;
49678;SDS011;35570;48.218;16.326;2023-02-24T21:37:09;12.48;;;2.92;;
49678;SDS011;35570;48.218;16.326;2023-02-24T21:39:35;12.10;;;3.35;;
49678;SDS011;35570;48.218;16.326;2023-02-24T21:42:00;9.07;;;3.65;;
49678;SDS011;35570;48.218;16.326;2023-02-24T21:44:26;14.50;;;3.70;;
49678;SDS011;35570;48.218;16.326;2023-02-24T21:46:52;8.35;;;3.10;;
49678;SDS011;35570;48.218;16.326;2023-02-24T21:49:19;11.13;;;4.28;;
49678;SDS011;35570;48.218;16.326;2023-02-24T21:51:45;11.90;;;3.75;;
49678;SDS011;35570;48.218;16.326;2023-02-24T21:54:14;10.52;;;3.70;;
49678;SDS011;35570;48.218;16.326;2023-02-24T21:56:40;13.02;;;3.03;;
49678;SDS011;35570;48.218;16.326;2023-02-24T21:59:07;11.05;;;3.45;;
49678;SDS011;35570;48.218;16.326;2023-02-24T22:01:34;12.25;;;3.55;;
49678;SDS011;35570;48.218;16.326;2023-02-24T22:04:09;11.57;;;2.92;;
49678;SDS011;35570;48.218;16.326;2023-02-24T22:06:37;12.30;;;3.00;;
49678;SDS011;35570;48.218;16.326;2023-02-24T22:09:05;10.80;;;3.10;;
49678;SDS011;35570;48.218;16.326;2023-02-24T22:11:33;13.95;;;3.20;;
49678;SDS011;35570;48.218;16.326;2023-02-24T22:14:00;11.80;;;3.28;;
49678;SDS011;35570;48.218;16.326;2023-02-24T22:16:26;9.70;;;2.90;;
49678;SDS011;35570;48.218;16.326;2023-02-24T22:18:52;12.57;;;3.45;;
49678;SDS011;35570;48.218;16.326;2023-02-24T22:21:20;14.10;;;3.85;;
49678;SDS011;35570;48.218;16.326;2023-02-24T22:23:50;13.25;;;3.17;;
49678;SDS011;35570;48.218;16.326;2023-02-24T22:26:18;10.35;;;2.97;;
49678;SDS011;35570;48.218;16.326;2023-02-24T22:28:46;14.57;;;3.00;;
49678;SDS011;35570;48.218;16.326;2023-02-24T22:31:14;10.07;;;3.25;;
49678;SDS011;35570;48.218;16.326;2023-02-24T22:33:41;11.00;;;2.88;;
49678;SDS011;35570;48.218;16.326;2023-02-24T22:36:12;9.30;;;2.50;;
49678;SDS011;35570;48.218;16.326;2023-02-24T22:38:39;13.88;;;3.45;;
49678;SDS011;35570;48.218;16.326;2023-02-24T22:41:13;9.75;;;2.83;;
49678;SDS011;35570;48.218;16.326;2023-02-24T22:43:43;12.50;;;2.65;;
49678;SDS011;35570;48.218;16.326;2023-02-24T22:46:10;8.68;;;2.95;;
49678;SDS011;35570;48.218;16.326;2023-02-24T22:48:38;12.18;;;3.03;;
49678;SDS011;35570;48.218;16.326;2023-02-24T22:51:05;12.27;;;2.40;;
49678;SDS011;35570;48.218;16.326;2023-02-24T22:53:32;11.65;;;3.00;;
49678;SDS011;35570;48.218;16.326;2023-02-24T22:55:59;11.95;;;2.60;;
49678;SDS011;35570;48.218;16.326;2023-02-24T22:58:25;10.02;;;3.17;;
49678;SDS011;35570;48.218;16.326;2023-02-24T23:00:51;12.20;;;2.95;;
49678;SDS011;35570;48.218;16.326;2023-02-24T23:03:19;13.30;;;3.05;;
49678;SDS011;35570;48.218;16.326;2023-02-24T23:05:57;7.95;;;2.10;;
49678;SDS011;35570;48.218;16.326;2023-02-24T23:08:25;8.80;;;2.25;;
49678;SDS011;35570;48.218;16.326;2023-02-24T23:10:52;11.00;;;2.85;;
49678;SDS011;35570;48.218;16.326;2023-02-24T23:13:18;12.60;;;3.35;;
49678;SDS011;35570;48.218;16.326;2023-02-24T23:15:45;14.75;;;2.60;;
49678;SDS011;35570;48.218;16.326;2023-02-24T23:18:11;15.40;;;3.35;;
49678;SDS011;35570;48.218;16.326;2023-02-24T23:20:38;10.15;;;2.28;;
49678;SDS011;35570;48.218;16.326;2023-02-24T23:23:04;9.80;;;2.30;;
49678;SDS011;35570;48.218;16.326;2023-02-24T23:25:30;11.05;;;2.42;;
49678;SDS011;35570;48.218;16.326;2023-02-24T23:27:55;16.77;;;2.38;;
49678;SDS011;35570;48.218;16.326;2023-02-24T23:30:21;8.35;;;2.10;;
49678;SDS011;35570;48.218;16.326;2023-02-24T23:32:47;10.27;;;2.10;;
49678;SDS011;35570;48.218;16.326;2023-02-24T23:35:13;7.40;;;2.30;;
49678;SDS011;35570;48.218;16.326;2023-02-24T23:37:39;6.90;;;1.48;;
49678;SDS011;35570;48.218;16.326;2023-02-24T23:40:06;6.95;;;1.63;;
49678;SDS011;35570;48.218;16.326;2023-02-24T23:42:42;5.88;;;1.85;;
49678;SDS011;35570;48.218;16.326;2023-02-24T23:45:08;7.28;;;2.08;;
49678;SDS011;35570;48.218;16.326;2023-02-24T23:47:34;7.68;;;1.65;;
49678;SDS011;35570;48.218;16.326;2023-02-24T23:50:00;9.30;;;2.20;;
49678;SDS011;35570;48.218;16.326;2023-02-24T23:52:26;6.93;;;1.60;;
49678;SDS011;35570;48.218;16.326;2023-02-24T23:54:52;10.40;;;1.73;;
49678;SDS011;35570;48.218;16.326;2023-02-24T23:57:18;5.53;;;1.40;;
49678;SDS011;35570;48.218;16.326;2023-02-24T23:59:45;4.20;;;1.20;;
